Latest Weather Observations for Longreach

IDQ60801

Issued at 7:02 pm EST Friday 28 August 2015 (issued every 30 minutes, with the page automatically refreshed every 10 minutes)

About weather observations | Map of weather stations | Latest weather observations for QLD | Other Formats
Station Details ID: 036031 Name: LONGREACH AERO Lat: -23.44 Lon: 144.28 Height: 192.2 m
Data from the previous 72 hours. | See also: Recent months at Longreach
Date/Time
EST
Temp
°C
App
Temp
°C
Dew
Point
Rel
Hum
%
Delta-T
°C
Wind Press
QNH
hPa
Press
MSL
hPa
Rain
since 9 am
mm
Dir
 
Spd
km/h
Gust
km/h
Spd
kts
Gust
kts
28/07:00pm 22.7 19.0 6.3 34 8.4 S 15 17 8 9 1019.0 - 0.0
28/06:30pm 23.2 19.1 6.0 33 8.8 S 17 19 9 10 1019.0 - 0.0
28/06:00pm 23.8 19.6 5.8 31 9.2 S 17 26 9 14 1018.5 1018.2 0.0
28/05:30pm 24.4 19.9 6.0 30 9.5 S 19 26 10 14 1018.2 - 0.0
28/05:00pm 24.8 20.0 5.5 29 9.9 S 20 28 11 15 1018.1 - 0.0
28/04:30pm 25.3 21.2 6.0 29 10.0 SSW 17 30 9 16 1018.0 - 0.0
28/04:00pm 25.7 20.9 5.8 28 10.3 S 20 30 11 16 1017.8 - 0.0
28/03:30pm 25.3 20.8 6.0 29 10.0 SSW 19 28 10 15 1018.1 - 0.0
28/03:00pm 26.1 21.9 5.9 27 10.5 S 17 26 9 14 1018.2 1017.9 0.0
28/02:30pm 26.1 21.3 4.7 25 10.9 SSW 19 28 10 15 1018.5 - 0.0
28/02:00pm 26.0 21.9 4.5 25 10.9 SSW 15 26 8 14 1018.6 - 0.0
28/01:30pm 26.1 21.4 5.0 25 10.8 S 19 26 10 14 1018.9 - 0.0
28/01:00pm 26.1 21.4 3.0 22 11.4 S 17 28 9 15 1019.6 - 0.0
28/12:30pm 24.7 21.1 6.7 31 9.4 SE 15 32 8 17 1020.1 - 0.0
28/12:00pm 24.6 21.3 6.3 31 9.5 SSE 13 20 7 11 1021.0 1020.7 0.0
28/11:30am 23.9 20.8 8.7 38 8.2 SE 15 26 8 14 1021.3 - 0.0
28/11:00am 23.6 20.1 8.7 38 8.0 SE 17 26 9 14 1021.8 - 0.0
28/10:30am 21.9 18.1 9.7 45 6.6 ESE 20 24 11 13 1021.9 - 0.0
28/10:00am 21.1 17.1 10.5 50 5.8 SE 22 30 12 16 1022.3 - 0.0
28/09:30am 19.8 16.1 11.5 58 4.6 ESE 22 32 12 17 1022.5 - 0.0
28/09:00am 18.0 14.8 12.0 68 3.3 ESE 20 30 11 16 1022.5 1022.2 0.4
28/08:30am 16.1 14.0 12.3 78 2.1 SE 15 19 8 10 1022.5 - 0.4
28/08:00am 14.1 13.4 12.1 88 1.1 SSE 7 9 4 5 1022.7 - 0.4
28/07:30am 12.7 12.8 11.6 93 0.6 N 2 7 1 4 1022.4 - 0.4
28/07:00am 11.7 10.4 11.1 96 0.3 SW 9 17 5 9 1022.1 - 0.4
28/06:30am 11.6 9.5 11.0 96 0.3 SW 13 15 7 8 1021.7 - 0.4
28/06:00am 11.9 10.6 11.3 96 0.3 SSW 9 11 5 6 1021.4 1021.1 0.4
28/05:30am 11.8 10.5 11.2 96 0.3 SSW 9 11 5 6 1021.2 - 0.4
28/05:00am 11.2 9.4 10.8 97 0.2 SW 11 13 6 7 1020.9 - 0.4
28/04:30am 11.6 10.2 11.0 96 0.3 SSW 9 13 5 7 1020.6 - 0.4
28/04:00am 11.8 10.0 11.0 95 0.4 SW 11 13 6 7 1020.8 - 0.4
28/03:30am 12.0 10.7 11.2 95 0.4 WSW 9 9 5 5 1021.0 - 0.4
28/03:00am 12.5 11.0 11.8 95 0.4 S 11 15 6 8 1020.6 1020.3 0.4
28/02:30am 12.7 11.2 12.0 95 0.4 S 11 11 6 6 1021.0 - 0.4
28/02:00am 13.0 11.9 12.1 94 0.5 S 9 9 5 5 1021.2 - 0.4
28/01:30am 13.4 12.1 12.5 94 0.5 S 11 13 6 7 1021.4 - 0.4
28/01:00am 13.6 12.3 12.5 93 0.6 S 11 13 6 7 1021.6 - 0.4
28/12:30am 13.8 12.9 12.7 93 0.6 S 9 11 5 6 1021.8 - 0.4
28/12:00am 14.7 13.6 13.1 90 0.9 SSE 11 13 6 7 1021.9 1021.6 0.4
 
Date/Time
EST
Temp
°C
App
Temp
°C
Dew
Point
Rel
Hum
%
Delta-T
°C
Wind Press
QNH
hPa
Press
MSL
hPa
Rain
since 9 am
mm
Dir
 
Spd
km/h
Gust
km/h
Spd
kts
Gust
kts
27/11:30pm 15.0 13.5 13.2 89 1.0 SSE 13 13 7 7 1021.8 - 0.4
27/11:00pm 14.9 13.9 13.3 90 0.9 SSE 11 13 6 7 1021.9 - 0.4
27/10:30pm 15.3 14.7 13.5 89 1.0 SSE 9 9 5 5 1022.0 - 0.4
27/10:00pm 16.0 14.7 13.7 86 1.3 SSE 13 17 7 9 1022.1 - 0.4
27/09:30pm 16.4 15.2 13.9 85 1.4 SSE 13 15 7 8 1021.9 - 0.4
27/09:00pm 17.0 15.9 14.2 83 1.6 S 13 17 7 9 1021.8 1021.5 0.4
27/08:30pm 17.5 16.1 14.6 83 1.7 S 15 19 8 10 1021.7 - 0.4
27/08:00pm 18.1 15.9 14.8 81 1.9 S 20 26 11 14 1021.3 - 0.4
27/07:30pm 18.5 17.8 15.3 81 1.9 S 13 15 7 8 1021.0 - 0.4
27/07:00pm 19.0 17.5 15.3 79 2.2 S 17 22 9 12 1020.5 - 0.4
27/06:30pm 19.4 17.0 15.4 77 2.4 SSW 22 32 12 17 1020.2 - 0.4
27/06:00pm 19.8 17.0 15.4 76 2.6 SSW 24 30 13 16 1019.8 1019.5 0.4
27/05:30pm 20.0 18.0 15.6 76 2.6 S 20 32 11 17 1019.3 - 0.4
27/05:00pm 20.3 18.0 15.6 74 2.8 SSW 22 30 12 16 1019.2 - 0.4
27/04:30pm 21.0 18.9 15.3 70 3.4 SSW 20 26 11 14 1019.4 - 0.4
27/04:00pm 20.9 18.8 16.1 74 2.9 SSW 22 30 12 16 1019.2 - 0.4
27/03:30pm 20.9 18.4 16.1 74 2.9 SSW 24 30 13 16 1019.5 - 0.4
27/03:29pm 20.9 18.7 15.9 73 3.0 SSW 22 30 12 16 1019.5 - 0.4
27/03:00pm 20.3 18.0 16.7 80 2.2 SSW 24 30 13 16 1019.6 1019.3 0.4
27/02:57pm 20.2 17.9 16.6 80 2.2 SSW 24 30 13 16 1019.6 - 0.4
27/02:30pm 21.3 20.1 16.2 72 3.1 SSW 17 26 9 14 1019.6 - 0.4
27/02:00pm 21.9 20.6 15.9 68 3.6 S 17 26 9 14 1019.9 - 0.4
27/01:30pm 21.6 20.1 15.4 68 3.7 S 17 19 9 10 1020.3 - 0.4
27/01:00pm 20.9 19.9 15.7 72 3.1 SW 15 19 8 10 1021.1 - 0.4
27/12:30pm 21.1 20.9 15.6 71 3.3 S 11 15 6 8 1021.2 - 0.4
27/12:00pm 21.1 20.0 15.4 70 3.4 ESE 15 20 8 11 1021.2 1020.9 0.4
27/11:30am 21.2 18.5 15.7 71 3.3 E 24 32 13 17 1021.4 - 0.0
27/11:00am 20.5 17.8 15.5 73 3.0 E 24 30 13 16 1021.6 - 0.0
27/10:30am 19.2 17.1 15.3 78 2.3 ESE 20 26 11 14 1021.9 - 0.0
27/10:00am 18.2 16.6 15.0 81 1.9 ESE 17 22 9 12 1022.1 - 0.0
27/09:30am 17.7 16.1 15.0 84 1.6 E 17 20 9 11 1022.3 - 0.0
27/09:00am 17.2 15.5 14.8 86 1.4 ESE 17 19 9 10 1022.2 1021.9 0.2
27/08:30am 16.7 15.8 14.8 88 1.1 SE 13 19 7 10 1021.9 - 0.2
27/08:00am 16.3 15.7 14.6 90 1.0 SSE 11 15 6 8 1021.7 - 0.2
27/07:30am 16.2 14.0 14.3 88 1.1 SSE 19 24 10 13 1021.1 - 0.2
27/07:00am 16.0 13.6 14.3 90 1.0 ESE 20 28 11 15 1020.4 - 0.2
27/06:30am 15.9 11.9 14.1 89 1.0 E 28 33 15 18 1019.8 - 0.2
27/06:00am 16.0 13.5 13.5 85 1.4 SE 19 26 10 14 1020.3 1020.0 0.2
27/05:30am 15.8 11.1 13.1 84 1.5 ESE 30 37 16 20 1020.0 - 0.2
27/05:00am 15.6 11.3 13.1 85 1.4 SE 28 33 15 18 1020.3 - 0.2
27/04:30am 15.4 12.3 13.3 87 1.2 SSE 22 30 12 16 1021.1 - 0.2
27/04:00am 16.5 13.4 11.7 73 2.6 S 19 26 10 14 1021.5 - 0.0
27/03:30am 16.6 13.3 11.7 73 2.7 SSE 20 26 11 14 1020.5 - 0.0
27/03:00am 16.6 13.0 11.9 74 2.6 SSE 22 30 12 16 1020.2 1019.9 0.0
27/02:30am 16.8 13.6 11.3 70 3.0 S 19 26 10 14 1021.0 - 0.0
27/02:00am 16.8 13.5 11.7 72 2.8 SSE 20 30 11 16 1020.5 - 0.0
27/01:30am 17.4 13.7 11.4 68 3.3 S 22 28 12 15 1020.4 - 0.0
27/01:00am 18.0 14.4 10.6 62 4.0 S 20 26 11 14 1020.6 - 0.0
27/12:30am 18.1 14.7 10.5 61 4.1 SSE 19 28 10 15 1020.1 - 0.0
27/12:00am 18.2 14.2 10.6 61 4.1 SE 22 30 12 16 1020.1 1019.8 0.0
 
Date/Time
EST
Temp
°C
App
Temp
°C
Dew
Point
Rel
Hum
%
Delta-T
°C
Wind Press
QNH
hPa
Press
MSL
hPa
Rain
since 9 am
mm
Dir
 
Spd
km/h
Gust
km/h
Spd
kts
Gust
kts
26/11:30pm 18.5 14.2 10.6 60 4.3 SSE 24 30 13 16 1020.6 - 0.0
26/11:00pm 19.1 14.6 10.2 56 4.8 SSE 24 32 13 17 1021.1 - 0.0
26/10:30pm 19.4 16.0 10.4 56 4.9 SSE 19 26 10 14 1021.0 - 0.0
26/10:00pm 19.4 15.8 10.4 56 4.9 SSE 20 28 11 15 1020.4 - 0.0
26/09:30pm 19.8 15.3 10.0 53 5.3 SSE 24 32 13 17 1020.4 - 0.0
26/09:00pm 20.1 15.6 9.9 52 5.5 SSE 24 35 13 19 1020.4 1020.1 0.0
26/08:30pm 20.2 15.5 10.5 53 5.3 SSE 26 37 14 20 1020.0 - 0.0
26/08:00pm 20.7 14.0 9.8 49 5.9 S 35 41 19 22 1019.3 - 0.0
26/07:30pm 21.0 14.4 9.9 49 6.0 S 35 48 19 26 1019.1 - 0.0
26/07:00pm 21.6 14.6 10.1 48 6.3 S 37 50 20 27 1018.8 - 0.0
26/06:30pm 22.2 15.0 10.4 47 6.5 S 39 52 21 28 1018.4 - 0.0
26/06:00pm 23.4 17.8 10.0 42 7.4 S 30 41 16 22 1017.9 1017.6 0.0
26/05:30pm 24.9 18.7 7.9 33 9.1 S 30 39 16 21 1017.4 - 0.0
26/05:00pm 25.3 19.9 11.0 40 8.1 S 30 37 16 20 1017.1 - 0.0
26/04:30pm 27.6 22.0 8.7 30 10.4 S 28 37 15 20 1016.9 - 0.0
26/04:00pm 29.0 25.0 8.9 28 11.2 S 20 28 11 15 1016.5 - 0.0
26/03:30pm 27.8 21.8 8.5 29 10.6 S 30 37 16 20 1016.3 - 0.0
26/03:16pm 28.5 22.9 8.6 28 11.0 S 28 41 15 22 1016.1 - 0.0
26/03:00pm 30.4 29.3 10.1 28 11.6 NNW 6 11 3 6 1016.0 1015.6 0.0
26/02:30pm 30.7 28.7 10.1 28 11.8 S 11 15 6 8 1016.3 - 0.0
26/02:00pm 29.7 28.1 8.9 27 11.6 NE 7 11 4 6 1016.7 - 0.0
26/01:30pm 29.9 25.9 8.2 25 12.0 NNE 19 28 10 15 1017.1 - 0.0
26/01:00pm 29.4 26.7 9.0 28 11.4 E 13 24 7 13 1017.8 - 0.0
26/12:30pm 29.2 24.8 7.2 25 11.9 ESE 20 30 11 16 1018.4 - 0.0
26/12:00pm 28.5 24.9 6.8 25 11.6 E 15 28 8 15 1019.3 1019.0 0.0
26/11:30am 27.2 22.7 6.0 26 11.1 ESE 19 26 10 14 1019.7 - 0.0
26/11:00am 26.9 22.5 4.8 24 11.3 ESE 17 26 9 14 1020.3 - 0.0
26/10:30am 25.4 20.4 4.6 26 10.5 ESE 20 26 11 14 1020.6 - 0.0
26/10:00am 23.9 18.8 4.2 28 9.8 SE 20 30 11 16 1020.6 - 0.0
26/09:30am 22.2 16.4 4.6 31 8.7 SE 24 30 13 16 1021.1 - 0.0
26/09:00am 21.3 15.4 4.0 32 8.4 SE 24 30 13 16 1021.4 1021.1 0.0
26/08:30am 19.9 14.6 3.2 33 7.9 SSE 20 28 11 15 1021.3 - 0.0
26/08:00am 18.3 13.2 2.8 35 7.2 SSE 19 26 10 14 1021.1 - 0.0
26/07:30am 16.8 12.8 2.6 38 6.5 SE 13 17 7 9 1020.9 - 0.0
26/07:00am 15.8 12.4 1.9 39 6.2 SE 9 11 5 6 1020.8 - 0.0
26/06:30am 16.0 11.8 1.9 38 6.3 S 13 17 7 9 1020.1 - 0.0
26/06:00am 16.5 12.0 2.1 38 6.5 SSE 15 20 8 11 1020.2 1019.9 0.0
26/05:30am 16.5 12.3 1.4 36 6.7 SSE 13 17 7 9 1020.0 - 0.0
26/05:00am 16.2 11.6 1.6 37 6.5 SSE 15 17 8 9 1019.6 - 0.0
26/04:30am 16.6 12.4 1.9 37 6.6 SE 13 15 7 8 1019.5 - 0.0
26/04:00am 16.6 12.4 1.6 36 6.7 SE 13 15 7 8 1019.2 - 0.0
26/03:30am 16.9 11.9 1.1 34 7.0 S 17 20 9 11 1019.1 - 0.0
26/03:00am 16.8 12.2 1.3 35 6.9 S 15 17 8 9 1019.6 1019.3 0.0
26/02:30am 16.3 12.0 1.1 35 6.7 S 13 17 7 9 1019.6 - 0.0
26/02:00am 17.2 13.0 1.6 35 7.0 S 13 15 7 8 1019.4 - 0.0
26/01:30am 18.1 13.5 1.5 33 7.5 S 15 17 8 9 1019.6 - 0.0
26/01:00am 18.9 13.9 1.5 31 7.9 SSE 17 22 9 12 1019.5 - 0.0
26/12:30am 19.3 14.7 1.6 30 8.1 SSE 15 19 8 10 1019.7 - 0.0
26/12:00am 19.2 15.1 2.1 32 7.9 SSE 13 15 7 8 1019.6 1019.3 0.0
 
Date/Time
EST
Temp
°C
App
Temp
°C
Dew
Point
Rel
Hum
%
Delta-T
°C
Wind Press
QNH
hPa
Press
MSL
hPa
Rain
since 9 am
mm
Dir
 
Spd
km/h
Gust
km/h
Spd
kts
Gust
kts
25/11:30pm 19.5 15.4 2.2 31 8.0 S 13 17 7 9 1020.0 - 0.0
25/11:00pm 20.5 16.0 2.0 29 8.6 S 15 20 8 11 1019.9 - 0.0
25/10:30pm 20.9 15.6 2.0 28 8.8 S 19 22 10 12 1019.9 - 0.0
25/10:00pm 21.3 16.0 2.1 28 9.0 S 19 24 10 13 1019.9 - 0.0
25/09:30pm 21.5 16.4 2.8 29 8.9 S 19 24 10 13 1020.1 - 0.0
25/09:00pm 21.8 17.1 3.0 29 9.0 S 17 22 9 12 1020.0 1019.7 0.0
25/08:30pm 22.0 17.8 4.0 30 8.8 S 15 17 8 9 1019.9 - 0.0
25/08:00pm 22.3 19.0 4.8 32 8.7 SW 11 13 6 7 1019.7 - 0.0
25/07:30pm 23.0 19.8 5.1 31 9.0 SW 11 13 6 7 1019.3 - 0.0

Other Formats:

Comma delimited format used in spreadsheet applications
http://www.bom.gov.au/fwo/IDQ60801/IDQ60801.94346.axf

JavaScript Object Notation format (JSON) in row-major order
http://www.bom.gov.au/fwo/IDQ60801/IDQ60801.94346.json